createdAt,value
2023-03-17T00:00:53.993Z,81.67
2023-03-17T00:01:53.985Z,81.46
2023-03-17T00:02:54.020Z,81.56
2023-03-17T00:03:54.022Z,81.67
2023-03-17T00:04:53.954Z,81.67
2023-03-17T00:05:53.944Z,81.91
2023-03-17T00:06:53.955Z,82.43
2023-03-17T00:07:53.928Z,83.19
2023-03-17T00:08:53.927Z,83.61
2023-03-17T00:09:53.908Z,83.56
2023-03-17T00:10:53.876Z,82.80
2023-03-17T00:11:53.883Z,82.50
2023-03-17T00:12:53.850Z,82.50
2023-03-17T00:13:53.891Z,82.08
2023-03-17T00:14:53.836Z,82.50
2023-03-17T00:15:53.864Z,82.60
2023-03-17T00:16:53.811Z,82.80
2023-03-17T00:17:53.802Z,82.60
2023-03-17T00:18:53.814Z,82.74
2023-03-17T00:19:53.848Z,82.84
2023-03-17T00:20:53.769Z,83.05
2023-03-17T00:21:53.778Z,83.22
2023-03-17T00:22:53.746Z,82.80
2023-03-17T00:23:53.771Z,82.50
2023-03-17T00:24:53.718Z,82.15
2023-03-17T00:25:53.747Z,81.73
2023-03-17T00:26:53.763Z,81.87
2023-03-17T00:27:53.697Z,81.84
2023-03-17T00:28:53.711Z,81.67
2023-03-17T00:29:53.674Z,81.46
2023-03-17T00:30:53.694Z,81.42
2023-03-17T00:31:53.682Z,81.35
2023-03-17T00:32:53.765Z,81.56
2023-03-17T00:33:53.628Z,81.56
2023-03-17T00:34:53.618Z,81.87
2023-03-17T00:35:53.624Z,82.39
2023-03-17T00:36:53.849Z,82.39
2023-03-17T00:37:53.630Z,82.29
2023-03-17T00:38:53.592Z,82.08
2023-03-17T00:39:53.568Z,81.91
2023-03-17T00:40:53.556Z,82.43
2023-03-17T00:41:53.566Z,82.53
2023-03-17T00:42:53.556Z,82.95
2023-03-17T00:43:53.525Z,83.15
2023-03-17T00:44:53.499Z,82.50
2023-03-17T00:45:53.491Z,82.18
2023-03-17T00:46:53.530Z,82.29
2023-03-17T00:47:53.528Z,81.77
2023-03-17T00:48:53.499Z,81.77
2023-03-17T00:49:53.472Z,81.98
2023-03-17T00:50:53.462Z,82.22
2023-03-17T00:51:53.429Z,82.29
2023-03-17T00:52:53.416Z,82.32
2023-03-17T00:53:53.417Z,82.39
2023-03-17T00:54:53.577Z,82.18
2023-03-17T00:55:53.377Z,82.32
2023-03-17T00:56:53.387Z,82.64
2023-03-17T00:57:53.361Z,82.95
2023-03-17T00:58:53.356Z,83.40
2023-03-17T00:59:53.338Z,83.81
2023-03-17T01:00:53.373Z,84.01
2023-03-17T01:01:53.357Z,83.67
2023-03-17T01:02:53.317Z,83.32
2023-03-17T01:03:53.291Z,82.70
2023-03-17T01:05:05.471Z,82.29
2023-03-17T01:05:54.314Z,81.87
2023-03-17T01:06:53.283Z,82.32
2023-03-17T01:07:53.252Z,82.95
2023-03-17T01:08:53.294Z,83.25
2023-03-17T01:09:53.251Z,83.36
2023-03-17T01:10:53.258Z,83.01
2023-03-17T01:11:53.236Z,82.39
2023-03-17T01:12:53.203Z,82.08
2023-03-17T01:13:53.244Z,82.08
2023-03-17T01:14:53.199Z,81.87
2023-03-17T01:15:53.250Z,81.94
2023-03-17T01:16:53.188Z,81.42
2023-03-17T01:17:53.216Z,80.87
2023-03-17T01:18:53.216Z,80.49
2023-03-17T01:19:53.139Z,80.60
2023-03-17T01:20:53.144Z,80.70
2023-03-17T01:21:53.100Z,80.60
2023-03-17T01:22:53.079Z,80.60
2023-03-17T01:23:53.147Z,80.29
2023-03-17T01:24:53.060Z,80.84
2023-03-17T01:25:53.055Z,81.35
2023-03-17T01:26:53.065Z,81.32
2023-03-17T01:27:53.029Z,81.01
2023-03-17T01:28:53.112Z,80.80
2023-03-17T01:29:53.022Z,80.84
2023-03-17T01:30:52.996Z,81.15
2023-03-17T01:31:53.073Z,81.01
2023-03-17T01:32:53.056Z,80.80
2023-03-17T01:33:53.021Z,80.80
2023-03-17T01:34:52.970Z,80.90
2023-03-17T01:35:53.025Z,81.21
2023-03-17T01:36:52.976Z,81.35
2023-03-17T01:37:52.933Z,81.56
2023-03-17T01:38:52.928Z,81.77
2023-03-17T01:39:52.957Z,82.08
2023-03-17T01:40:52.972Z,81.94
2023-03-17T01:41:52.872Z,81.21
2023-03-17T01:42:52.863Z,81.15
2023-03-17T01:43:52.865Z,81.35
2023-03-17T01:44:52.853Z,81.46
2023-03-17T01:45:52.913Z,81.46
2023-03-17T01:46:52.846Z,81.46
2023-03-17T01:47:52.807Z,81.56
2023-03-17T01:48:52.805Z,81.67
2023-03-17T01:49:52.782Z,81.67
2023-03-17T01:50:52.786Z,81.98
2023-03-17T01:51:52.810Z,81.87
2023-03-17T01:52:52.772Z,81.87
2023-03-17T01:53:52.775Z,81.67
2023-03-17T01:54:52.733Z,81.98
2023-03-17T01:55:52.751Z,82.39
2023-03-17T01:56:52.722Z,82.80
2023-03-17T01:57:52.733Z,82.80
2023-03-17T01:58:52.719Z,82.90
2023-03-17T01:59:52.696Z,82.74
2023-03-17T02:00:52.832Z,82.80
2023-03-17T02:01:52.677Z,82.29
2023-03-17T02:02:52.677Z,81.87
2023-03-17T02:03:52.740Z,81.87
2023-03-17T02:04:52.624Z,81.67
2023-03-17T02:05:52.814Z,81.77
2023-03-17T02:06:58.488Z,81.73
2023-03-17T02:07:53.626Z,81.42
2023-03-17T02:08:52.583Z,81.35
2023-03-17T02:09:52.643Z,81.67
2023-03-17T02:10:52.553Z,81.77
2023-03-17T02:11:52.553Z,81.77
2023-03-17T02:12:52.533Z,82.22
2023-03-17T02:13:52.556Z,83.15
2023-03-17T02:14:52.536Z,83.25
2023-03-17T02:15:52.494Z,83.15
2023-03-17T02:16:52.502Z,83.15
2023-03-17T02:17:52.509Z,83.25
2023-03-17T02:18:52.478Z,83.36
2023-03-17T02:19:52.473Z,82.84
2023-03-17T02:20:52.477Z,82.64
2023-03-17T02:21:52.450Z,82.43
2023-03-17T02:22:52.467Z,82.43
2023-03-17T02:23:52.416Z,82.32
2023-03-17T02:24:52.404Z,82.64
2023-03-17T02:25:52.441Z,82.43
2023-03-17T02:26:52.405Z,82.32
2023-03-17T02:27:52.367Z,81.81
2023-03-17T02:28:52.371Z,82.05
2023-03-17T02:29:52.354Z,82.36
2023-03-17T02:30:52.390Z,82.46
2023-03-17T02:31:52.332Z,82.26
2023-03-17T02:32:52.451Z,81.95
2023-03-17T02:33:52.306Z,81.84
2023-03-17T02:34:52.287Z,82.05
2023-03-17T02:35:52.338Z,82.05
2023-03-17T02:36:52.371Z,82.40
2023-03-17T02:37:52.330Z,82.19
2023-03-17T02:38:52.252Z,82.40
2023-03-17T02:39:52.246Z,82.95
2023-03-17T02:40:52.244Z,83.26
2023-03-17T02:41:52.228Z,84.03
2023-03-17T02:42:52.210Z,84.41
2023-03-17T02:43:52.221Z,84.09
2023-03-17T02:44:52.195Z,84.41
2023-03-17T02:45:52.275Z,84.41
2023-03-17T02:46:52.169Z,84.20
2023-03-17T02:47:52.161Z,83.68
2023-03-17T02:48:52.140Z,83.99
2023-03-17T02:49:52.228Z,84.20
2023-03-17T02:50:52.125Z,83.89
2023-03-17T02:51:52.119Z,83.85
2023-03-17T02:52:52.106Z,83.64
2023-03-17T02:53:52.095Z,83.64
2023-03-17T02:54:52.113Z,83.78
2023-03-17T02:55:52.054Z,83.99
2023-03-17T02:56:52.062Z,84.30
2023-03-17T02:57:52.059Z,84.37
2023-03-17T02:58:52.033Z,83.95
2023-03-17T02:59:52.036Z,83.54
2023-03-17T03:00:52.035Z,83.16
2023-03-17T03:01:52.052Z,83.37
2023-03-17T03:02:52.069Z,83.37
2023-03-17T03:03:51.974Z,83.16
2023-03-17T03:04:51.955Z,83.37
2023-03-17T03:05:51.947Z,83.37
2023-03-17T03:06:51.965Z,83.26
2023-03-17T03:07:51.935Z,83.26
2023-03-17T03:08:51.931Z,83.41
2023-03-17T03:09:51.950Z,84.23
2023-03-17T03:10:51.896Z,84.55
2023-03-17T03:11:51.961Z,84.65
2023-03-17T03:12:51.866Z,84.55
2023-03-17T03:13:51.893Z,84.20
2023-03-17T03:14:51.869Z,84.55
2023-03-17T03:15:51.891Z,84.92
2023-03-17T03:16:51.844Z,85.03
2023-03-17T03:17:51.847Z,84.78
2023-03-17T03:18:51.810Z,84.37
2023-03-17T03:19:51.787Z,83.95
2023-03-17T03:20:51.784Z,83.64
2023-03-17T03:21:51.780Z,83.61
2023-03-17T03:22:51.774Z,83.29
2023-03-17T03:23:51.803Z,83.09
2023-03-17T03:24:51.742Z,82.78
2023-03-17T03:25:51.738Z,82.88
2023-03-17T03:26:51.710Z,82.67
2023-03-17T03:27:51.733Z,82.67
2023-03-17T03:28:51.718Z,82.71
2023-03-17T03:29:51.701Z,82.71
2023-03-17T03:30:51.702Z,83.83
2023-03-17T03:31:51.668Z,84.92
2023-03-17T03:32:51.718Z,85.19
2023-03-17T03:33:51.655Z,84.68
2023-03-17T03:34:51.656Z,83.95
2023-03-17T03:35:51.653Z,83.54
2023-03-17T03:36:51.611Z,83.40
2023-03-17T03:37:51.616Z,83.19
2023-03-17T03:38:51.596Z,82.98
2023-03-17T03:39:51.595Z,82.78
2023-03-17T03:40:51.584Z,82.57
2023-03-17T03:41:51.547Z,82.32
2023-03-17T03:42:51.628Z,82.01
2023-03-17T03:43:51.526Z,81.81
2023-03-17T03:44:51.510Z,81.49
2023-03-17T03:45:51.564Z,81.60
2023-03-17T03:46:51.580Z,81.49
2023-03-17T03:47:51.479Z,81.33
2023-03-17T03:48:51.492Z,81.95
2023-03-17T03:49:51.461Z,81.84
2023-03-17T03:50:51.490Z,81.43
2023-03-17T03:51:51.468Z,81.95
2023-03-17T03:52:51.419Z,83.02
2023-03-17T03:53:51.419Z,83.29
2023-03-17T03:54:51.408Z,82.98
2023-03-17T03:55:51.394Z,82.57
2023-03-17T03:56:51.389Z,82.36
2023-03-17T03:57:51.431Z,82.57
2023-03-17T03:58:51.364Z,82.46
2023-03-17T03:59:51.345Z,82.32
2023-03-17T04:00:51.349Z,81.74
2023-03-17T04:01:51.333Z,82.26
2023-03-17T04:02:51.365Z,81.95
2023-03-17T04:03:51.365Z,82.12
2023-03-17T04:04:51.344Z,81.81
2023-03-17T04:05:51.280Z,81.67
2023-03-17T04:06:51.276Z,81.25
2023-03-17T04:07:51.268Z,80.84
2023-03-17T04:08:51.271Z,80.63
2023-03-17T04:09:51.267Z,80.53
2023-03-17T04:10:51.225Z,80.53
2023-03-17T04:11:51.212Z,80.84
2023-03-17T04:12:51.267Z,80.74
2023-03-17T04:13:51.206Z,80.84
2023-03-17T04:14:51.218Z,80.67
2023-03-17T04:15:51.201Z,80.98
2023-03-17T04:16:51.237Z,81.29
2023-03-17T04:17:51.162Z,81.09
2023-03-17T04:18:51.223Z,80.77
2023-03-17T04:19:51.127Z,80.88
2023-03-17T04:20:51.156Z,80.98
2023-03-17T04:21:52.825Z,80.84
2023-03-17T04:22:51.100Z,80.53
2023-03-17T04:23:51.120Z,80.63
2023-03-17T04:24:51.104Z,80.32
2023-03-17T04:25:51.080Z,80.32
2023-03-17T04:26:51.072Z,80.11
2023-03-17T04:27:51.031Z,80.01
2023-03-17T04:28:51.033Z,79.91
2023-03-17T04:29:51.007Z,80.01
2023-03-17T04:30:51.032Z,79.80
2023-03-17T04:31:51.043Z,79.56
2023-03-17T04:32:51.005Z,79.49
2023-03-17T04:33:50.970Z,79.91
2023-03-17T04:34:50.993Z,79.80
2023-03-17T04:35:51.036Z,79.29
2023-03-17T04:36:50.958Z,79.49
2023-03-17T04:37:51.088Z,80.01
2023-03-17T04:38:50.949Z,80.32
2023-03-17T04:39:50.901Z,79.70
2023-03-17T04:40:50.901Z,79.60
2023-03-17T04:41:50.903Z,79.63
2023-03-17T04:42:50.890Z,79.94
2023-03-17T04:43:50.896Z,79.94
2023-03-17T04:44:50.850Z,79.74
2023-03-17T04:45:50.940Z,79.74
2023-03-17T04:46:50.836Z,79.84
2023-03-17T04:47:50.821Z,80.40
2023-03-17T04:48:50.828Z,81.26
2023-03-17T04:49:50.821Z,81.78
2023-03-17T04:50:50.812Z,81.84
2023-03-17T04:51:50.767Z,81.64
2023-03-17T04:52:50.769Z,81.33
2023-03-17T04:53:50.755Z,81.12
2023-03-17T04:54:50.780Z,81.02
2023-03-17T04:55:50.762Z,81.16
2023-03-17T04:56:50.715Z,80.95
2023-03-17T04:57:50.708Z,80.43
2023-03-17T04:58:50.724Z,80.68
2023-03-17T04:59:50.781Z,81.34
2023-03-17T05:00:50.692Z,81.75
2023-03-17T05:01:50.683Z,82.17
2023-03-17T05:02:50.643Z,82.37
2023-03-17T05:03:50.657Z,82.27
2023-03-17T05:04:50.622Z,82.06
2023-03-17T05:05:50.695Z,81.85
2023-03-17T05:06:50.601Z,82.06
2023-03-17T05:07:50.663Z,82.17
2023-03-17T05:08:50.591Z,82.17
2023-03-17T05:09:50.573Z,82.58
2023-03-17T05:10:50.563Z,82.68
2023-03-17T05:11:50.580Z,82.72
2023-03-17T05:12:50.540Z,83.17
2023-03-17T05:13:50.533Z,84.00
2023-03-17T05:14:50.509Z,84.77
2023-03-17T05:15:50.549Z,85.35
2023-03-17T05:16:50.551Z,85.46
2023-03-17T05:17:50.495Z,84.90
2023-03-17T05:18:50.472Z,84.17
2023-03-17T05:19:50.463Z,83.65
2023-03-17T05:20:50.444Z,83.28
2023-03-17T05:21:50.453Z,83.59
2023-03-17T05:22:50.458Z,83.55
2023-03-17T05:23:50.423Z,83.34
2023-03-17T05:24:50.396Z,83.24
2023-03-17T05:25:50.420Z,83.28
2023-03-17T05:26:50.424Z,83.59
2023-03-17T05:27:50.385Z,83.69
2023-03-17T05:28:50.402Z,84.46
2023-03-17T05:29:50.361Z,85.60
2023-03-17T05:30:50.393Z,85.71
2023-03-17T05:31:50.325Z,85.81
2023-03-17T05:32:50.313Z,85.56
2023-03-17T05:33:50.322Z,85.14
2023-03-17T05:34:50.320Z,85.00
2023-03-17T05:35:50.321Z,84.59
2023-03-17T05:36:50.263Z,84.28
2023-03-17T05:37:50.263Z,84.73
2023-03-17T05:38:50.238Z,85.39
2023-03-17T05:39:50.233Z,85.81
2023-03-17T05:40:50.261Z,85.87
2023-03-17T05:41:50.253Z,85.66
2023-03-17T05:42:50.270Z,84.59
2023-03-17T05:43:50.200Z,84.38
2023-03-17T05:44:50.171Z,83.76
2023-03-17T05:45:50.215Z,83.28
2023-03-17T05:46:50.190Z,83.48
2023-03-17T05:47:50.180Z,83.28
2023-03-17T05:48:50.150Z,83.07
2023-03-17T05:49:50.131Z,82.97
2023-03-17T05:50:50.171Z,83.17
2023-03-17T05:51:50.132Z,83.17
2023-03-17T05:52:50.073Z,82.86
2023-03-17T05:53:50.105Z,82.65
2023-03-17T05:54:50.161Z,82.65
2023-03-17T05:55:50.061Z,82.86
2023-03-17T05:56:50.097Z,82.97
2023-03-17T05:57:50.074Z,82.86
2023-03-17T05:58:50.022Z,82.76
2023-03-17T05:59:50.020Z,82.55
2023-03-17T06:00:50.034Z,82.76
2023-03-17T06:01:49.987Z,82.70
2023-03-17T06:02:50.051Z,83.11
2023-03-17T06:03:49.982Z,83.22
2023-03-17T06:04:49.972Z,83.22
2023-03-17T06:05:49.935Z,83.38
2023-03-17T06:06:49.930Z,83.63
2023-03-17T06:07:54.926Z,84.05
2023-03-17T06:08:51.088Z,84.46
2023-03-17T06:09:49.895Z,84.88
2023-03-17T06:10:49.889Z,84.52
2023-03-17T06:11:49.864Z,84.21
2023-03-17T06:12:49.872Z,84.73
2023-03-17T06:13:49.872Z,85.39
2023-03-17T06:14:49.888Z,85.66
2023-03-17T06:15:49.837Z,85.97
2023-03-17T06:16:49.816Z,85.52
2023-03-17T06:17:49.810Z,85.21
2023-03-17T06:18:49.801Z,84.75
2023-03-17T06:19:49.807Z,84.20
2023-03-17T06:20:49.808Z,83.89
2023-03-17T06:21:49.753Z,83.26
2023-03-17T06:23:03.283Z,83.02
2023-03-17T06:23:50.749Z,82.65
2023-03-17T06:24:49.731Z,82.95
2023-03-17T06:25:49.750Z,82.65
2023-03-17T06:26:49.731Z,82.65
2023-03-17T06:27:49.694Z,82.75
2023-03-17T06:28:49.681Z,82.29
2023-03-17T06:29:49.687Z,81.88
2023-03-17T06:30:49.733Z,81.74
2023-03-17T06:31:49.702Z,81.23
2023-03-17T06:32:49.667Z,80.60
2023-03-17T06:33:49.638Z,80.67
2023-03-17T06:34:49.613Z,80.32
2023-03-17T06:35:49.620Z,79.74
2023-03-17T06:36:49.617Z,79.70
2023-03-17T06:37:49.605Z,79.29
2023-03-17T06:38:49.589Z,78.94
2023-03-17T06:39:49.548Z,78.53
2023-03-17T06:40:49.545Z,78.28
2023-03-17T06:41:49.533Z,77.15
2023-03-17T06:42:49.582Z,77.25
2023-03-17T06:43:49.520Z,76.94
2023-03-17T06:44:49.527Z,76.94
2023-03-17T06:45:49.523Z,76.90
2023-03-17T06:46:49.541Z,76.50
2023-03-17T06:47:49.464Z,76.25
2023-03-17T06:48:49.553Z,75.95
2023-03-17T06:49:49.440Z,75.53
2023-03-17T06:50:49.432Z,75.32
2023-03-17T06:51:49.421Z,75.63
2023-03-17T06:52:49.422Z,75.81
2023-03-17T06:53:49.478Z,75.18
2023-03-17T06:54:49.403Z,75.18
2023-03-17T06:55:49.390Z,75.05
2023-03-17T06:56:49.363Z,74.84
2023-03-17T06:57:51.174Z,74.33
2023-03-17T06:58:49.343Z,74.40
2023-03-17T06:59:49.370Z,73.98
2023-03-17T07:00:49.338Z,73.23
2023-03-17T07:01:49.379Z,72.58
2023-03-17T07:02:49.307Z,72.27
2023-03-17T07:03:49.303Z,72.20
2023-03-17T07:04:49.355Z,72.54
2023-03-17T07:05:49.321Z,73.05
2023-03-17T07:06:49.264Z,72.81
2023-03-17T07:07:49.262Z,73.16
2023-03-17T07:08:49.241Z,73.47
2023-03-17T07:09:49.222Z,73.43
2023-03-17T07:10:49.251Z,73.23
2023-03-17T07:11:49.238Z,72.99
2023-03-17T07:12:49.201Z,72.78
2023-03-17T07:13:49.163Z,72.37
2023-03-17T07:14:49.176Z,72.16
2023-03-17T07:15:49.207Z,71.72
2023-03-17T07:16:49.311Z,71.31
2023-03-17T07:17:49.285Z,70.69
2023-03-17T07:18:49.113Z,70.69
2023-03-17T07:19:49.107Z,70.07
2023-03-17T07:20:49.095Z,69.49
2023-03-17T07:21:49.078Z,68.64
2023-03-17T07:22:49.108Z,68.67
2023-03-17T07:23:49.061Z,69.09
2023-03-17T07:24:49.140Z,68.74
2023-03-17T07:25:49.022Z,68.23
2023-03-17T07:26:49.077Z,68.46
2023-03-17T07:27:49.014Z,68.67
2023-03-17T07:28:49.063Z,67.82
2023-03-17T07:29:48.998Z,67.41
2023-03-17T07:30:48.989Z,68.02
2023-03-17T07:31:49.018Z,68.23
2023-03-17T07:32:49.061Z,67.48
2023-03-17T07:33:48.981Z,67.68
2023-03-17T07:34:48.993Z,67.17
2023-03-17T07:35:48.992Z,67.30
2023-03-17T07:36:48.930Z,67.82
2023-03-17T07:37:48.897Z,67.71
2023-03-17T07:38:48.910Z,67.58
2023-03-17T07:39:48.882Z,66.96
2023-03-17T07:40:48.910Z,66.63
2023-03-17T07:41:48.927Z,66.63
2023-03-17T07:42:48.873Z,67.17
2023-03-17T07:43:48.840Z,66.86
2023-03-17T07:44:48.814Z,66.86
2023-03-17T07:45:48.830Z,67.07
2023-03-17T07:46:48.829Z,66.63
2023-03-17T07:47:48.790Z,66.52
2023-03-17T07:48:48.767Z,66.70
2023-03-17T07:49:48.851Z,66.08
2023-03-17T07:50:48.768Z,65.23
2023-03-17T07:51:48.780Z,65.47
2023-03-17T07:52:48.733Z,65.88
2023-03-17T07:53:48.768Z,65.77
2023-03-17T07:54:48.764Z,65.80
2023-03-17T07:55:48.683Z,65.77
2023-03-17T07:56:48.697Z,64.92
2023-03-17T07:57:48.784Z,64.61
2023-03-17T07:58:48.690Z,65.26
2023-03-17T07:59:48.686Z,65.47
2023-03-17T08:00:48.650Z,65.50
2023-03-17T08:01:48.718Z,65.26
2023-03-17T08:03:03.156Z,65.44
2023-03-17T08:03:49.661Z,65.12
2023-03-17T08:04:48.619Z,64.41
2023-03-17T08:05:48.638Z,64.82
2023-03-17T08:06:48.599Z,64.82
2023-03-17T08:07:48.561Z,65.61
2023-03-17T08:08:48.563Z,64.89
2023-03-17T08:09:48.558Z,64.82
2023-03-17T08:10:48.550Z,64.38
2023-03-17T08:11:48.516Z,64.59
2023-03-17T08:12:48.502Z,64.69
2023-03-17T08:13:48.496Z,64.14
2023-03-17T08:14:48.525Z,64.25
2023-03-17T08:15:48.503Z,63.70
2023-03-17T08:16:48.595Z,63.70
2023-03-17T08:17:48.447Z,62.78
2023-03-17T08:18:48.433Z,64.25
2023-03-17T08:19:48.498Z,64.76
2023-03-17T08:20:48.434Z,64.53
2023-03-17T08:21:48.471Z,63.68
2023-03-17T08:22:48.425Z,63.98
2023-03-17T08:23:48.402Z,62.96
2023-03-17T08:24:48.411Z,62.73
2023-03-17T08:25:49.388Z,62.11
2023-03-17T08:26:48.359Z,62.83
2023-03-17T08:27:48.339Z,62.85
2023-03-17T08:28:48.331Z,63.37
2023-03-17T08:29:48.314Z,63.68
2023-03-17T08:30:50.478Z,62.35
2023-03-17T08:31:48.481Z,62.85
2023-03-17T08:32:48.332Z,62.85
2023-03-17T08:33:48.307Z,62.07
2023-03-17T08:34:48.267Z,63.88
2023-03-17T08:35:48.255Z,63.24
2023-03-17T08:36:48.239Z,62.93
2023-03-17T08:37:48.257Z,63.54
2023-03-17T08:38:48.215Z,63.57
2023-03-17T08:39:48.200Z,64.26
2023-03-17T08:40:48.186Z,62.93
2023-03-17T08:41:48.165Z,61.70
2023-03-17T08:42:48.247Z,62.80
2023-03-17T08:43:48.143Z,63.62
2023-03-17T08:44:48.154Z,63.31
2023-03-17T08:45:48.175Z,63.00
2023-03-17T08:46:48.106Z,63.07
2023-03-17T08:47:48.095Z,61.44
2023-03-17T08:48:48.179Z,62.39
2023-03-17T08:49:48.090Z,63.00
2023-03-17T08:50:48.123Z,62.90
2023-03-17T08:51:48.065Z,62.66
2023-03-17T08:52:48.069Z,61.44
2023-03-17T08:53:48.037Z,62.16
2023-03-17T08:54:48.048Z,62.05
2023-03-17T08:55:48.019Z,62.42
2023-03-17T08:56:48.017Z,62.49
2023-03-17T08:57:48.002Z,63.18
2023-03-17T08:58:47.977Z,63.56
2023-03-17T08:59:47.968Z,61.82
2023-03-17T09:00:47.999Z,61.38
2023-03-17T09:01:47.993Z,60.64
2023-03-17T09:02:48.023Z,61.66
2023-03-17T09:03:48.042Z,62.55
2023-03-17T09:04:47.911Z,60.17
2023-03-17T09:05:47.963Z,60.28
2023-03-17T09:07:02.185Z,60.89
2023-03-17T09:07:48.928Z,59.59
2023-03-17T09:08:47.880Z,59.92
2023-03-17T09:09:47.871Z,60.41
2023-03-17T09:10:47.842Z,60.71
2023-03-17T09:11:47.830Z,60.48
2023-03-17T09:12:47.859Z,61.47
2023-03-17T09:13:47.855Z,61.30
2023-03-17T09:14:49.283Z,61.68
2023-03-17T09:15:48.666Z,60.69
2023-03-17T09:16:47.772Z,61.30
2023-03-17T09:17:47.843Z,60.21
2023-03-17T09:18:47.741Z,61.92
2023-03-17T09:19:47.731Z,63.32
2023-03-17T09:20:47.720Z,62.40
2023-03-17T09:21:47.724Z,62.68
2023-03-17T09:22:47.713Z,61.46
2023-03-17T09:23:47.755Z,62.04
2023-03-17T09:24:47.686Z,61.73
2023-03-17T09:25:47.685Z,62.48
2023-03-17T09:26:47.653Z,62.14
2023-03-17T09:27:47.636Z,62.62
2023-03-17T09:28:47.834Z,61.87
2023-03-17T09:29:47.638Z,62.35
2023-03-17T09:30:47.672Z,61.63
2023-03-17T09:31:47.620Z,62.11
2023-03-17T09:32:47.620Z,62.52
2023-03-17T09:33:47.574Z,62.11
2023-03-17T09:34:49.620Z,61.40
2023-03-17T09:35:47.576Z,61.32
2023-03-17T09:36:47.545Z,63.09
2023-03-17T09:37:47.552Z,62.48
2023-03-17T09:38:47.530Z,62.45
2023-03-17T09:39:47.519Z,61.71
2023-03-17T09:40:47.531Z,61.27
2023-03-17T09:41:47.480Z,60.42
2023-03-17T09:42:47.485Z,60.60
2023-03-17T09:43:47.453Z,59.51
2023-03-17T09:44:47.447Z,59.91
2023-03-17T09:45:47.453Z,60.66
2023-03-17T09:46:47.551Z,60.42
2023-03-17T09:47:47.406Z,62.05
2023-03-17T09:48:47.529Z,60.96
2023-03-17T09:49:47.408Z,60.93
2023-03-17T09:50:47.387Z,60.99
2023-03-17T09:51:47.368Z,62.21
2023-03-17T09:52:48.785Z,62.49
2023-03-17T09:53:47.356Z,61.78
2023-03-17T09:54:47.353Z,61.88
2023-03-17T09:55:47.313Z,62.32
2023-03-17T09:56:47.300Z,62.01
2023-03-17T09:57:47.285Z,62.32
2023-03-17T09:58:48.996Z,62.24
2023-03-17T09:59:47.276Z,62.96
2023-03-17T10:00:47.276Z,62.52
2023-03-17T10:01:47.304Z,63.20
2023-03-17T10:02:47.238Z,61.88
2023-03-17T10:03:47.301Z,60.83
2023-03-17T10:04:47.271Z,60.83
2023-03-17T10:05:47.409Z,60.50
2023-03-17T10:06:47.188Z,61.99
2023-03-17T10:07:47.208Z,61.08
2023-03-17T10:08:47.170Z,59.75
2023-03-17T10:09:47.205Z,59.75
2023-03-17T10:10:47.137Z,59.28
2023-03-17T10:11:47.132Z,60.22
2023-03-17T10:12:47.142Z,61.14
2023-03-17T10:13:47.133Z,61.11
2023-03-17T10:14:48.148Z,60.85
2023-03-17T10:15:47.190Z,59.86
2023-03-17T10:16:47.082Z,59.32
2023-03-17T10:17:47.158Z,59.32
2023-03-17T10:18:47.050Z,59.45
2023-03-17T10:19:47.045Z,60.68
2023-03-17T10:20:47.972Z,59.70
2023-03-17T10:21:47.092Z,59.66
2023-03-17T10:22:47.022Z,59.83
2023-03-17T10:23:47.022Z,60.34
2023-03-17T10:24:47.018Z,60.21
2023-03-17T10:25:46.979Z,58.76
2023-03-17T10:26:46.984Z,58.89
2023-03-17T10:27:47.051Z,59.77
2023-03-17T10:28:46.953Z,59.03
2023-03-17T10:29:48.439Z,61.07
2023-03-17T10:30:46.931Z,58.73
2023-03-17T10:31:46.920Z,58.65
2023-03-17T10:32:47.052Z,58.73
2023-03-17T10:33:46.909Z,58.83
2023-03-17T10:34:46.922Z,58.20
2023-03-17T10:35:46.872Z,57.28
2023-03-17T10:36:46.857Z,57.71
2023-03-17T10:37:46.842Z,58.04
2023-03-17T10:38:46.832Z,59.41
2023-03-17T10:39:46.846Z,57.68
2023-03-17T10:40:46.802Z,57.18
2023-03-17T10:41:46.823Z,56.60
2023-03-17T10:42:46.785Z,57.23
2023-03-17T10:43:46.781Z,57.51
2023-03-17T10:44:46.756Z,57.68
2023-03-17T10:45:46.787Z,56.04
2023-03-17T10:46:46.827Z,55.91
2023-03-17T10:47:46.731Z,56.52
2023-03-17T10:48:46.716Z,56.62
2023-03-17T10:49:46.706Z,57.33
2023-03-17T10:50:48.657Z,57.56
2023-03-17T10:51:46.714Z,56.65
2023-03-17T10:52:46.713Z,55.71
2023-03-17T10:53:46.657Z,54.94
2023-03-17T10:54:46.654Z,54.51
2023-03-17T10:55:46.636Z,55.27
2023-03-17T10:56:46.658Z,54.44
2023-03-17T10:57:46.596Z,54.64
2023-03-17T10:58:46.595Z,54.84
2023-03-17T10:59:46.577Z,54.77
2023-03-17T11:00:46.596Z,54.94
2023-03-17T11:01:46.559Z,53.78
2023-03-17T11:02:46.590Z,53.88
2023-03-17T11:03:46.619Z,54.24
2023-03-17T11:04:46.533Z,53.60
2023-03-17T11:05:46.530Z,54.08
2023-03-17T11:06:46.522Z,54.08
2023-03-17T11:07:46.518Z,54.11
2023-03-17T11:08:46.530Z,54.74
2023-03-17T11:09:46.517Z,54.31
2023-03-17T11:10:46.469Z,54.51
2023-03-17T11:11:46.474Z,54.24
2023-03-17T11:12:46.446Z,55.25
2023-03-17T11:13:46.457Z,54.92
2023-03-17T11:14:46.440Z,55.02
2023-03-17T11:15:46.443Z,55.15
2023-03-17T11:16:46.495Z,54.41
2023-03-17T11:17:46.404Z,55.02
2023-03-17T11:18:46.375Z,54.92
2023-03-17T11:19:46.369Z,54.38
2023-03-17T11:20:46.409Z,54.05
2023-03-17T11:21:46.344Z,54.00
2023-03-17T11:22:46.336Z,55.35
2023-03-17T11:23:46.338Z,56.16
2023-03-17T11:24:46.309Z,56.09
2023-03-17T11:25:46.301Z,57.20
2023-03-17T11:26:46.332Z,56.41
2023-03-17T11:27:46.276Z,56.72
2023-03-17T11:28:46.265Z,56.59
2023-03-17T11:29:46.264Z,55.85
2023-03-17T11:30:46.238Z,56.09
2023-03-17T11:31:46.254Z,55.98
2023-03-17T11:32:46.247Z,55.83
2023-03-17T11:33:46.214Z,55.32
2023-03-17T11:34:46.211Z,55.19
2023-03-17T11:35:46.281Z,54.99
2023-03-17T11:36:46.195Z,54.18
2023-03-17T11:37:46.204Z,53.58
2023-03-17T11:38:46.165Z,55.17
2023-03-17T11:39:46.147Z,55.10
2023-03-17T11:40:46.122Z,54.05
2023-03-17T11:41:46.151Z,53.14
2023-03-17T11:42:46.119Z,52.66
2023-03-17T11:43:46.144Z,52.56
2023-03-17T11:44:48.901Z,53.67
2023-03-17T11:45:46.104Z,52.56
2023-03-17T11:46:46.062Z,52.54
2023-03-17T11:47:46.067Z,52.97
2023-03-17T11:48:46.072Z,53.45
2023-03-17T11:49:46.068Z,52.84
2023-03-17T11:50:49.003Z,52.13
2023-03-17T11:51:46.022Z,52.33
2023-03-17T11:52:45.994Z,52.31
2023-03-17T11:53:45.997Z,52.48
2023-03-17T11:54:46.017Z,52.41
2023-03-17T11:55:45.964Z,53.55
2023-03-17T11:56:46.035Z,53.02
2023-03-17T11:57:45.944Z,52.11
2023-03-17T11:58:45.935Z,52.36
2023-03-17T11:59:45.955Z,53.25
2023-03-17T12:00:45.927Z,53.14
2023-03-17T12:01:45.889Z,52.11
2023-03-17T12:02:45.932Z,52.84
2023-03-17T12:03:45.967Z,52.54
2023-03-17T12:04:45.947Z,53.75
2023-03-17T12:05:45.923Z,53.27
2023-03-17T12:06:45.832Z,52.74
2023-03-17T12:07:45.825Z,52.23
2023-03-17T12:08:45.813Z,53.30
2023-03-17T12:09:45.815Z,52.11
2023-03-17T12:10:45.815Z,52.41
2023-03-17T12:11:45.826Z,51.70
2023-03-17T12:12:45.781Z,53.32
2023-03-17T12:13:45.874Z,52.31
2023-03-17T12:14:45.788Z,52.74
2023-03-17T12:15:45.783Z,53.22
2023-03-17T12:16:45.740Z,52.28
2023-03-17T12:17:45.732Z,51.78
2023-03-17T12:18:45.712Z,52.46
2023-03-17T12:19:45.708Z,51.76
2023-03-17T12:20:45.664Z,51.65
2023-03-17T12:21:45.653Z,51.70
2023-03-17T12:22:45.643Z,52.31
2023-03-17T12:23:45.691Z,52.59
2023-03-17T12:24:45.622Z,51.48
2023-03-17T12:25:45.653Z,51.76
2023-03-17T12:26:45.598Z,50.19
2023-03-17T12:27:45.639Z,50.16
2023-03-17T12:28:45.575Z,51.20
2023-03-17T12:29:45.597Z,52.14
2023-03-17T12:30:45.673Z,50.59
2023-03-17T12:31:45.524Z,50.09
2023-03-17T12:32:45.600Z,51.89
2023-03-17T12:33:45.508Z,50.12
2023-03-17T12:34:45.523Z,50.62
2023-03-17T12:35:45.510Z,51.00
2023-03-17T12:36:45.513Z,50.27
2023-03-17T12:37:45.474Z,50.24
2023-03-17T12:38:45.487Z,49.33
2023-03-17T12:39:45.462Z,49.52
2023-03-17T12:40:45.496Z,49.64
2023-03-17T12:41:45.447Z,49.54
2023-03-17T12:42:45.461Z,50.52
2023-03-17T12:43:45.393Z,50.62
2023-03-17T12:44:45.375Z,51.91
2023-03-17T12:45:45.380Z,52.01
2023-03-17T12:46:45.397Z,51.40
2023-03-17T12:47:45.492Z,50.45
2023-03-17T12:48:45.340Z,51.15
2023-03-17T12:49:45.381Z,50.12
2023-03-17T12:50:45.326Z,50.32
2023-03-17T12:51:45.310Z,50.52
2023-03-17T12:52:45.301Z,50.12